Weather at D.C. Heliport

Public forecast

Using degrees Celsius for public forecast. Weather courtesy of forecast.io.

Closest aviation weather report (METAR) to D.C. Heliport

Closest report is Kingston Norman Rogers Airport, 13.8 nm (25.5 km) SE.

2024/07/22 10:00 (retrieved 1 hour ago)

CYGK 221000Z 36004KT 15SM FEW010 BKN250 15/15 A3005 RMK SF1CI5 SLP177

Closest aviation forecast (TAF) to D.C. Heliport

Forecast is more than 12 hours old.

Closest forecast is Kingston Norman Rogers Airport, 13.8 nm (25.5 km) SE.

2024/07/21 20:00 (retrieved 15 hours ago)

TAF CYGK 211950Z 2120/2203 VRB03KT P6SM SCT015 BKN250 TEMPO 2120/2124 P6SM -SHRA BKN015 FM220000 21005KT P6SM SCT040 TEMPO 2200/2203 P6SM -SHRA BKN040 RMK NXT FCST BY 221200Z